sensor_id;sensor_type;location;lat;lon;timestamp;P1;durP1;ratioP1;P2;durP2;ratioP2
5458;SDS011;2752;49.992;8.422;2023-06-10T00:01:23;10.60;;;5.93;;
5458;SDS011;2752;49.992;8.422;2023-06-10T00:03:49;9.77;;;5.73;;
5458;SDS011;2752;49.992;8.422;2023-06-10T00:06:16;11.53;;;6.23;;
5458;SDS011;2752;49.992;8.422;2023-06-10T00:08:44;12.93;;;6.20;;
5458;SDS011;2752;49.992;8.422;2023-06-10T00:11:12;11.77;;;6.03;;
5458;SDS011;2752;49.992;8.422;2023-06-10T00:13:39;11.30;;;5.97;;
5458;SDS011;2752;49.992;8.422;2023-06-10T00:16:06;11.37;;;6.47;;
5458;SDS011;2752;49.992;8.422;2023-06-10T00:18:32;12.37;;;7.33;;
5458;SDS011;2752;49.992;8.422;2023-06-10T00:21:01;10.43;;;6.20;;
5458;SDS011;2752;49.992;8.422;2023-06-10T00:23:30;11.50;;;6.13;;
5458;SDS011;2752;49.992;8.422;2023-06-10T00:26:04;8.40;;;5.77;;
5458;SDS011;2752;49.992;8.422;2023-06-10T00:28:31;11.23;;;6.20;;
5458;SDS011;2752;49.992;8.422;2023-06-10T00:30:57;10.20;;;5.90;;
5458;SDS011;2752;49.992;8.422;2023-06-10T00:33:24;9.80;;;6.13;;
5458;SDS011;2752;49.992;8.422;2023-06-10T00:35:51;9.50;;;5.70;;
5458;SDS011;2752;49.992;8.422;2023-06-10T00:38:18;12.73;;;6.10;;
5458;SDS011;2752;49.992;8.422;2023-06-10T00:40:44;10.77;;;6.50;;
5458;SDS011;2752;49.992;8.422;2023-06-10T00:43:13;10.57;;;5.97;;
5458;SDS011;2752;49.992;8.422;2023-06-10T00:45:39;12.80;;;6.43;;
5458;SDS011;2752;49.992;8.422;2023-06-10T00:48:06;10.03;;;6.03;;
5458;SDS011;2752;49.992;8.422;2023-06-10T00:50:33;9.70;;;6.13;;
5458;SDS011;2752;49.992;8.422;2023-06-10T00:53:04;9.30;;;6.10;;
5458;SDS011;2752;49.992;8.422;2023-06-10T00:55:31;20.93;;;6.00;;
5458;SDS011;2752;49.992;8.422;2023-06-10T00:57:58;14.90;;;6.23;;
5458;SDS011;2752;49.992;8.422;2023-06-10T01:00:27;9.17;;;5.90;;
5458;SDS011;2752;49.992;8.422;2023-06-10T01:02:54;10.87;;;6.90;;
5458;SDS011;2752;49.992;8.422;2023-06-10T01:05:20;12.60;;;6.57;;
5458;SDS011;2752;49.992;8.422;2023-06-10T01:07:49;10.00;;;5.87;;
5458;SDS011;2752;49.992;8.422;2023-06-10T01:10:24;13.67;;;6.77;;
5458;SDS011;2752;49.992;8.422;2023-06-10T01:12:55;7.83;;;5.30;;
5458;SDS011;2752;49.992;8.422;2023-06-10T01:15:29;10.40;;;6.30;;
5458;SDS011;2752;49.992;8.422;2023-06-10T01:17:57;9.77;;;6.20;;
5458;SDS011;2752;49.992;8.422;2023-06-10T01:20:26;8.57;;;5.57;;
5458;SDS011;2752;49.992;8.422;2023-06-10T01:22:55;9.20;;;5.97;;
5458;SDS011;2752;49.992;8.422;2023-06-10T01:25:23;11.70;;;6.20;;
5458;SDS011;2752;49.992;8.422;2023-06-10T01:27:53;11.83;;;6.60;;
5458;SDS011;2752;49.992;8.422;2023-06-10T01:30:26;14.63;;;6.40;;
5458;SDS011;2752;49.992;8.422;2023-06-10T01:32:58;10.90;;;5.77;;
5458;SDS011;2752;49.992;8.422;2023-06-10T01:35:27;9.67;;;6.03;;
5458;SDS011;2752;49.992;8.422;2023-06-10T01:37:58;10.90;;;6.20;;
5458;SDS011;2752;49.992;8.422;2023-06-10T01:40:25;9.23;;;5.30;;
5458;SDS011;2752;49.992;8.422;2023-06-10T01:42:54;9.40;;;6.30;;
5458;SDS011;2752;49.992;8.422;2023-06-10T01:45:20;10.83;;;7.13;;
5458;SDS011;2752;49.992;8.422;2023-06-10T01:47:47;11.80;;;6.67;;
5458;SDS011;2752;49.992;8.422;2023-06-10T01:50:14;9.07;;;6.10;;
5458;SDS011;2752;49.992;8.422;2023-06-10T01:52:41;12.93;;;6.80;;
5458;SDS011;2752;49.992;8.422;2023-06-10T01:55:09;15.83;;;7.03;;
5458;SDS011;2752;49.992;8.422;2023-06-10T01:57:36;9.17;;;6.60;;
5458;SDS011;2752;49.992;8.422;2023-06-10T02:00:03;10.47;;;6.30;;
5458;SDS011;2752;49.992;8.422;2023-06-10T02:02:30;8.77;;;6.17;;
5458;SDS011;2752;49.992;8.422;2023-06-10T02:04:57;9.70;;;5.77;;
5458;SDS011;2752;49.992;8.422;2023-06-10T02:07:23;14.73;;;6.20;;
5458;SDS011;2752;49.992;8.422;2023-06-10T02:09:50;10.23;;;6.33;;
5458;SDS011;2752;49.992;8.422;2023-06-10T02:12:18;9.93;;;6.07;;
5458;SDS011;2752;49.992;8.422;2023-06-10T02:14:44;11.33;;;6.20;;
5458;SDS011;2752;49.992;8.422;2023-06-10T02:17:11;11.70;;;6.17;;
5458;SDS011;2752;49.992;8.422;2023-06-10T02:19:39;13.57;;;6.43;;
5458;SDS011;2752;49.992;8.422;2023-06-10T02:22:07;9.67;;;5.87;;
5458;SDS011;2752;49.992;8.422;2023-06-10T02:24:35;11.83;;;6.63;;
5458;SDS011;2752;49.992;8.422;2023-06-10T02:27:02;7.90;;;4.77;;
5458;SDS011;2752;49.992;8.422;2023-06-10T02:29:32;10.27;;;6.00;;
5458;SDS011;2752;49.992;8.422;2023-06-10T02:31:59;9.30;;;5.63;;
5458;SDS011;2752;49.992;8.422;2023-06-10T02:34:26;11.67;;;6.47;;
5458;SDS011;2752;49.992;8.422;2023-06-10T02:36:53;14.67;;;7.13;;
5458;SDS011;2752;49.992;8.422;2023-06-10T02:39:21;10.43;;;6.43;;
5458;SDS011;2752;49.992;8.422;2023-06-10T02:41:47;10.67;;;6.03;;
5458;SDS011;2752;49.992;8.422;2023-06-10T02:44:14;10.93;;;6.70;;
5458;SDS011;2752;49.992;8.422;2023-06-10T02:46:42;8.97;;;5.67;;
5458;SDS011;2752;49.992;8.422;2023-06-10T02:49:09;11.03;;;6.07;;
5458;SDS011;2752;49.992;8.422;2023-06-10T02:51:35;12.43;;;6.80;;
5458;SDS011;2752;49.992;8.422;2023-06-10T02:54:02;13.37;;;6.03;;
5458;SDS011;2752;49.992;8.422;2023-06-10T02:56:29;11.43;;;6.70;;
5458;SDS011;2752;49.992;8.422;2023-06-10T02:58:56;10.23;;;6.73;;
5458;SDS011;2752;49.992;8.422;2023-06-10T03:01:23;9.33;;;6.57;;
5458;SDS011;2752;49.992;8.422;2023-06-10T03:03:51;9.23;;;5.97;;
5458;SDS011;2752;49.992;8.422;2023-06-10T03:06:17;10.03;;;6.60;;
5458;SDS011;2752;49.992;8.422;2023-06-10T03:08:44;10.53;;;6.13;;
5458;SDS011;2752;49.992;8.422;2023-06-10T03:11:11;13.40;;;6.03;;
5458;SDS011;2752;49.992;8.422;2023-06-10T03:13:38;11.30;;;6.70;;
5458;SDS011;2752;49.992;8.422;2023-06-10T03:16:04;9.27;;;5.70;;
5458;SDS011;2752;49.992;8.422;2023-06-10T03:18:32;10.87;;;6.40;;
5458;SDS011;2752;49.992;8.422;2023-06-10T03:21:00;16.83;;;6.90;;
5458;SDS011;2752;49.992;8.422;2023-06-10T03:23:27;14.60;;;6.80;;
5458;SDS011;2752;49.992;8.422;2023-06-10T03:25:54;10.60;;;6.27;;
5458;SDS011;2752;49.992;8.422;2023-06-10T03:28:21;10.97;;;5.93;;
5458;SDS011;2752;49.992;8.422;2023-06-10T03:30:48;12.07;;;5.90;;
5458;SDS011;2752;49.992;8.422;2023-06-10T03:33:16;11.13;;;7.13;;
5458;SDS011;2752;49.992;8.422;2023-06-10T03:35:43;7.50;;;5.93;;
5458;SDS011;2752;49.992;8.422;2023-06-10T03:38:11;9.50;;;5.77;;
5458;SDS011;2752;49.992;8.422;2023-06-10T03:40:38;8.60;;;5.80;;
5458;SDS011;2752;49.992;8.422;2023-06-10T03:43:05;10.60;;;5.97;;
5458;SDS011;2752;49.992;8.422;2023-06-10T03:45:31;10.70;;;5.93;;
5458;SDS011;2752;49.992;8.422;2023-06-10T03:47:58;9.53;;;6.17;;
5458;SDS011;2752;49.992;8.422;2023-06-10T03:50:26;10.23;;;5.40;;
5458;SDS011;2752;49.992;8.422;2023-06-10T03:52:52;9.43;;;5.80;;
5458;SDS011;2752;49.992;8.422;2023-06-10T03:55:20;10.80;;;5.97;;
5458;SDS011;2752;49.992;8.422;2023-06-10T03:57:48;10.23;;;6.07;;
5458;SDS011;2752;49.992;8.422;2023-06-10T04:00:16;10.63;;;5.47;;
5458;SDS011;2752;49.992;8.422;2023-06-10T04:02:46;11.00;;;5.10;;
5458;SDS011;2752;49.992;8.422;2023-06-10T04:05:14;10.10;;;5.83;;
5458;SDS011;2752;49.992;8.422;2023-06-10T04:07:42;6.90;;;4.70;;
5458;SDS011;2752;49.992;8.422;2023-06-10T04:10:09;10.20;;;6.23;;
5458;SDS011;2752;49.992;8.422;2023-06-10T04:12:37;10.13;;;5.20;;
5458;SDS011;2752;49.992;8.422;2023-06-10T04:15:05;10.50;;;5.73;;
5458;SDS011;2752;49.992;8.422;2023-06-10T04:17:32;8.17;;;5.27;;
5458;SDS011;2752;49.992;8.422;2023-06-10T04:19:59;7.90;;;4.93;;
5458;SDS011;2752;49.992;8.422;2023-06-10T04:22:26;8.40;;;5.03;;
5458;SDS011;2752;49.992;8.422;2023-06-10T04:24:52;7.70;;;5.30;;
5458;SDS011;2752;49.992;8.422;2023-06-10T04:27:19;7.33;;;4.90;;
5458;SDS011;2752;49.992;8.422;2023-06-10T04:29:47;8.67;;;5.43;;
5458;SDS011;2752;49.992;8.422;2023-06-10T04:32:14;7.83;;;5.27;;
5458;SDS011;2752;49.992;8.422;2023-06-10T04:34:40;11.53;;;4.17;;
5458;SDS011;2752;49.992;8.422;2023-06-10T04:37:07;11.30;;;5.20;;
5458;SDS011;2752;49.992;8.422;2023-06-10T04:39:34;9.93;;;4.57;;
5458;SDS011;2752;49.992;8.422;2023-06-10T04:42:00;8.77;;;5.00;;
5458;SDS011;2752;49.992;8.422;2023-06-10T04:44:27;8.63;;;4.57;;
5458;SDS011;2752;49.992;8.422;2023-06-10T04:46:57;6.70;;;4.93;;
5458;SDS011;2752;49.992;8.422;2023-06-10T04:49:23;9.83;;;4.97;;
5458;SDS011;2752;49.992;8.422;2023-06-10T04:51:50;7.13;;;4.47;;
5458;SDS011;2752;49.992;8.422;2023-06-10T04:54:17;8.63;;;5.00;;
5458;SDS011;2752;49.992;8.422;2023-06-10T04:56:43;8.30;;;4.43;;
5458;SDS011;2752;49.992;8.422;2023-06-10T04:59:10;9.00;;;4.90;;
5458;SDS011;2752;49.992;8.422;2023-06-10T05:01:37;10.40;;;6.07;;
5458;SDS011;2752;49.992;8.422;2023-06-10T05:04:05;8.43;;;4.07;;
5458;SDS011;2752;49.992;8.422;2023-06-10T05:06:31;7.70;;;4.90;;
5458;SDS011;2752;49.992;8.422;2023-06-10T05:08:58;8.07;;;5.33;;
5458;SDS011;2752;49.992;8.422;2023-06-10T05:11:25;7.90;;;5.23;;
5458;SDS011;2752;49.992;8.422;2023-06-10T05:13:51;8.10;;;4.13;;
5458;SDS011;2752;49.992;8.422;2023-06-10T05:16:18;7.17;;;4.60;;
5458;SDS011;2752;49.992;8.422;2023-06-10T05:18:44;6.83;;;4.33;;
5458;SDS011;2752;49.992;8.422;2023-06-10T05:21:12;9.23;;;5.00;;
5458;SDS011;2752;49.992;8.422;2023-06-10T05:23:40;9.53;;;5.00;;
5458;SDS011;2752;49.992;8.422;2023-06-10T05:26:07;12.53;;;4.93;;
5458;SDS011;2752;49.992;8.422;2023-06-10T05:28:34;8.20;;;4.57;;
5458;SDS011;2752;49.992;8.422;2023-06-10T05:31:00;10.40;;;5.50;;
5458;SDS011;2752;49.992;8.422;2023-06-10T05:33:27;9.17;;;4.77;;
5458;SDS011;2752;49.992;8.422;2023-06-10T05:35:54;7.30;;;4.63;;
5458;SDS011;2752;49.992;8.422;2023-06-10T05:38:22;9.27;;;5.30;;
5458;SDS011;2752;49.992;8.422;2023-06-10T05:40:49;13.10;;;4.83;;
5458;SDS011;2752;49.992;8.422;2023-06-10T05:43:15;7.60;;;4.77;;
5458;SDS011;2752;49.992;8.422;2023-06-10T05:45:42;7.33;;;5.10;;
5458;SDS011;2752;49.992;8.422;2023-06-10T05:48:09;9.80;;;4.30;;
5458;SDS011;2752;49.992;8.422;2023-06-10T05:50:36;7.90;;;4.90;;
5458;SDS011;2752;49.992;8.422;2023-06-10T05:53:05;6.77;;;5.23;;
5458;SDS011;2752;49.992;8.422;2023-06-10T05:55:34;12.00;;;4.60;;
5458;SDS011;2752;49.992;8.422;2023-06-10T05:58:01;10.70;;;6.03;;
5458;SDS011;2752;49.992;8.422;2023-06-10T06:00:27;8.10;;;4.30;;
5458;SDS011;2752;49.992;8.422;2023-06-10T06:02:54;8.00;;;3.97;;
5458;SDS011;2752;49.992;8.422;2023-06-10T06:05:22;6.27;;;4.17;;
5458;SDS011;2752;49.992;8.422;2023-06-10T06:07:48;9.93;;;4.03;;
5458;SDS011;2752;49.992;8.422;2023-06-10T06:10:16;9.00;;;3.90;;
5458;SDS011;2752;49.992;8.422;2023-06-10T06:12:44;11.60;;;5.33;;
5458;SDS011;2752;49.992;8.422;2023-06-10T06:15:11;8.40;;;4.37;;
5458;SDS011;2752;49.992;8.422;2023-06-10T06:17:38;6.47;;;4.23;;
5458;SDS011;2752;49.992;8.422;2023-06-10T06:20:05;10.73;;;4.40;;
5458;SDS011;2752;49.992;8.422;2023-06-10T06:22:33;8.20;;;3.90;;
5458;SDS011;2752;49.992;8.422;2023-06-10T06:24:59;6.57;;;4.20;;
5458;SDS011;2752;49.992;8.422;2023-06-10T06:27:26;7.10;;;4.27;;
5458;SDS011;2752;49.992;8.422;2023-06-10T06:29:54;7.73;;;4.33;;
5458;SDS011;2752;49.992;8.422;2023-06-10T06:32:20;8.90;;;4.37;;
5458;SDS011;2752;49.992;8.422;2023-06-10T06:34:47;7.00;;;4.63;;
5458;SDS011;2752;49.992;8.422;2023-06-10T06:37:19;6.20;;;3.63;;
5458;SDS011;2752;49.992;8.422;2023-06-10T06:39:46;7.30;;;4.37;;
5458;SDS011;2752;49.992;8.422;2023-06-10T06:42:12;5.70;;;3.70;;
5458;SDS011;2752;49.992;8.422;2023-06-10T06:44:39;8.10;;;5.10;;
5458;SDS011;2752;49.992;8.422;2023-06-10T06:47:07;8.93;;;3.80;;
5458;SDS011;2752;49.992;8.422;2023-06-10T06:49:34;8.33;;;5.00;;
5458;SDS011;2752;49.992;8.422;2023-06-10T06:52:01;6.97;;;4.17;;
5458;SDS011;2752;49.992;8.422;2023-06-10T06:54:28;7.43;;;4.43;;
5458;SDS011;2752;49.992;8.422;2023-06-10T06:56:55;7.47;;;4.43;;
5458;SDS011;2752;49.992;8.422;2023-06-10T06:59:22;6.10;;;4.43;;
5458;SDS011;2752;49.992;8.422;2023-06-10T07:01:50;5.90;;;3.83;;
5458;SDS011;2752;49.992;8.422;2023-06-10T07:04:20;7.20;;;4.00;;
5458;SDS011;2752;49.992;8.422;2023-06-10T07:06:47;7.73;;;4.47;;
5458;SDS011;2752;49.992;8.422;2023-06-10T07:09:14;7.90;;;4.17;;
5458;SDS011;2752;49.992;8.422;2023-06-10T07:11:41;5.43;;;4.00;;
5458;SDS011;2752;49.992;8.422;2023-06-10T07:14:07;7.97;;;4.63;;
5458;SDS011;2752;49.992;8.422;2023-06-10T07:16:34;8.47;;;4.60;;
5458;SDS011;2752;49.992;8.422;2023-06-10T07:19:01;7.77;;;4.53;;
5458;SDS011;2752;49.992;8.422;2023-06-10T07:21:29;7.30;;;4.67;;
5458;SDS011;2752;49.992;8.422;2023-06-10T07:23:57;8.30;;;5.10;;
5458;SDS011;2752;49.992;8.422;2023-06-10T07:26:24;6.40;;;4.10;;
5458;SDS011;2752;49.992;8.422;2023-06-10T07:28:50;7.63;;;3.93;;
5458;SDS011;2752;49.992;8.422;2023-06-10T07:31:17;8.53;;;4.50;;
5458;SDS011;2752;49.992;8.422;2023-06-10T07:33:44;7.40;;;4.30;;
5458;SDS011;2752;49.992;8.422;2023-06-10T07:36:12;7.20;;;4.00;;
5458;SDS011;2752;49.992;8.422;2023-06-10T07:38:40;6.40;;;4.40;;
5458;SDS011;2752;49.992;8.422;2023-06-10T07:41:07;9.03;;;4.40;;
5458;SDS011;2752;49.992;8.422;2023-06-10T07:43:34;6.63;;;4.20;;
5458;SDS011;2752;49.992;8.422;2023-06-10T07:46:00;6.50;;;4.20;;
5458;SDS011;2752;49.992;8.422;2023-06-10T07:48:27;6.40;;;4.50;;
5458;SDS011;2752;49.992;8.422;2023-06-10T07:50:53;6.60;;;3.87;;
5458;SDS011;2752;49.992;8.422;2023-06-10T07:53:20;6.70;;;4.73;;
5458;SDS011;2752;49.992;8.422;2023-06-10T07:55:48;6.57;;;4.57;;
5458;SDS011;2752;49.992;8.422;2023-06-10T07:58:15;8.60;;;4.73;;
5458;SDS011;2752;49.992;8.422;2023-06-10T08:00:41;6.93;;;5.10;;
5458;SDS011;2752;49.992;8.422;2023-06-10T08:03:08;8.77;;;4.77;;
5458;SDS011;2752;49.992;8.422;2023-06-10T08:05:35;9.43;;;5.00;;
5458;SDS011;2752;49.992;8.422;2023-06-10T08:08:01;7.70;;;4.70;;
5458;SDS011;2752;49.992;8.422;2023-06-10T08:10:28;8.50;;;4.50;;
5458;SDS011;2752;49.992;8.422;2023-06-10T08:12:57;7.00;;;5.30;;
5458;SDS011;2752;49.992;8.422;2023-06-10T08:15:23;11.60;;;5.17;;
5458;SDS011;2752;49.992;8.422;2023-06-10T08:17:50;10.57;;;5.77;;
5458;SDS011;2752;49.992;8.422;2023-06-10T08:20:17;7.20;;;4.70;;
5458;SDS011;2752;49.992;8.422;2023-06-10T08:22:44;7.33;;;4.63;;
5458;SDS011;2752;49.992;8.422;2023-06-10T08:25:10;7.00;;;5.10;;
5458;SDS011;2752;49.992;8.422;2023-06-10T08:27:37;9.23;;;4.50;;
5458;SDS011;2752;49.992;8.422;2023-06-10T08:30:06;7.73;;;4.60;;
5458;SDS011;2752;49.992;8.422;2023-06-10T08:32:35;6.90;;;4.50;;
5458;SDS011;2752;49.992;8.422;2023-06-10T08:35:01;7.40;;;4.60;;
5458;SDS011;2752;49.992;8.422;2023-06-10T08:37:29;7.03;;;4.77;;
5458;SDS011;2752;49.992;8.422;2023-06-10T08:39:55;9.37;;;5.20;;
5458;SDS011;2752;49.992;8.422;2023-06-10T08:42:22;9.13;;;4.43;;
5458;SDS011;2752;49.992;8.422;2023-06-10T08:44:54;9.33;;;5.43;;
5458;SDS011;2752;49.992;8.422;2023-06-10T08:47:23;6.83;;;5.10;;
5458;SDS011;2752;49.992;8.422;2023-06-10T08:49:52;7.20;;;4.90;;
5458;SDS011;2752;49.992;8.422;2023-06-10T08:52:23;9.30;;;4.83;;
5458;SDS011;2752;49.992;8.422;2023-06-10T08:54:54;7.93;;;4.70;;
5458;SDS011;2752;49.992;8.422;2023-06-10T08:57:23;9.10;;;4.97;;
5458;SDS011;2752;49.992;8.422;2023-06-10T08:59:51;11.07;;;5.07;;
5458;SDS011;2752;49.992;8.422;2023-06-10T09:02:19;10.10;;;5.17;;
5458;SDS011;2752;49.992;8.422;2023-06-10T09:04:48;7.80;;;5.10;;
5458;SDS011;2752;49.992;8.422;2023-06-10T09:07:15;8.23;;;4.70;;
5458;SDS011;2752;49.992;8.422;2023-06-10T09:09:42;9.57;;;4.57;;
5458;SDS011;2752;49.992;8.422;2023-06-10T09:12:10;8.53;;;5.07;;
5458;SDS011;2752;49.992;8.422;2023-06-10T09:14:38;7.30;;;5.00;;
5458;SDS011;2752;49.992;8.422;2023-06-10T09:17:05;8.03;;;5.47;;
5458;SDS011;2752;49.992;8.422;2023-06-10T09:19:32;7.77;;;5.00;;
5458;SDS011;2752;49.992;8.422;2023-06-10T09:22:00;7.67;;;4.90;;
5458;SDS011;2752;49.992;8.422;2023-06-10T09:24:27;7.73;;;4.80;;
5458;SDS011;2752;49.992;8.422;2023-06-10T09:27:01;8.50;;;4.53;;
5458;SDS011;2752;49.992;8.422;2023-06-10T09:29:30;7.27;;;4.10;;
5458;SDS011;2752;49.992;8.422;2023-06-10T09:31:56;6.93;;;4.87;;
5458;SDS011;2752;49.992;8.422;2023-06-10T09:34:25;6.50;;;4.50;;
5458;SDS011;2752;49.992;8.422;2023-06-10T09:36:52;5.97;;;4.13;;
5458;SDS011;2752;49.992;8.422;2023-06-10T09:39:22;6.03;;;4.73;;
5458;SDS011;2752;49.992;8.422;2023-06-10T09:41:49;7.70;;;4.87;;
5458;SDS011;2752;49.992;8.422;2023-06-10T09:44:18;5.23;;;4.37;;
5458;SDS011;2752;49.992;8.422;2023-06-10T09:46:46;7.60;;;4.53;;
5458;SDS011;2752;49.992;8.422;2023-06-10T09:49:14;7.50;;;4.10;;
5458;SDS011;2752;49.992;8.422;2023-06-10T09:51:48;13.47;;;4.40;;
5458;SDS011;2752;49.992;8.422;2023-06-10T09:54:16;5.10;;;3.80;;
5458;SDS011;2752;49.992;8.422;2023-06-10T09:56:45;6.50;;;4.50;;
5458;SDS011;2752;49.992;8.422;2023-06-10T09:59:13;4.73;;;3.60;;
5458;SDS011;2752;49.992;8.422;2023-06-10T10:01:40;4.93;;;3.60;;
5458;SDS011;2752;49.992;8.422;2023-06-10T10:04:06;6.13;;;3.93;;
5458;SDS011;2752;49.992;8.422;2023-06-10T10:06:33;8.23;;;4.33;;
5458;SDS011;2752;49.992;8.422;2023-06-10T10:09:01;9.23;;;4.40;;
5458;SDS011;2752;49.992;8.422;2023-06-10T10:11:28;7.30;;;4.73;;
5458;SDS011;2752;49.992;8.422;2023-06-10T10:13:59;4.87;;;3.57;;
5458;SDS011;2752;49.992;8.422;2023-06-10T10:16:29;5.83;;;4.60;;
5458;SDS011;2752;49.992;8.422;2023-06-10T10:19:04;6.13;;;4.70;;
5458;SDS011;2752;49.992;8.422;2023-06-10T10:21:34;9.20;;;4.43;;
5458;SDS011;2752;49.992;8.422;2023-06-10T10:24:05;5.87;;;4.23;;
5458;SDS011;2752;49.992;8.422;2023-06-10T10:26:38;5.80;;;4.10;;
5458;SDS011;2752;49.992;8.422;2023-06-10T10:29:10;6.33;;;4.17;;
5458;SDS011;2752;49.992;8.422;2023-06-10T10:31:40;5.40;;;4.33;;
5458;SDS011;2752;49.992;8.422;2023-06-10T10:34:09;8.50;;;4.60;;
5458;SDS011;2752;49.992;8.422;2023-06-10T10:36:41;4.83;;;4.17;;
5458;SDS011;2752;49.992;8.422;2023-06-10T10:39:08;8.50;;;5.70;;
5458;SDS011;2752;49.992;8.422;2023-06-10T10:41:35;6.37;;;4.80;;
5458;SDS011;2752;49.992;8.422;2023-06-10T10:44:04;6.43;;;4.50;;
5458;SDS011;2752;49.992;8.422;2023-06-10T10:46:37;7.00;;;4.47;;
5458;SDS011;2752;49.992;8.422;2023-06-10T10:49:08;6.77;;;4.30;;
5458;SDS011;2752;49.992;8.422;2023-06-10T10:51:36;7.60;;;4.73;;
5458;SDS011;2752;49.992;8.422;2023-06-10T10:54:12;5.50;;;3.80;;
5458;SDS011;2752;49.992;8.422;2023-06-10T10:56:39;6.30;;;4.50;;
5458;SDS011;2752;49.992;8.422;2023-06-10T10:59:42;7.37;;;4.70;;
5458;SDS011;2752;49.992;8.422;2023-06-10T11:02:11;5.80;;;4.30;;
5458;SDS011;2752;49.992;8.422;2023-06-10T11:04:44;10.10;;;4.37;;
5458;SDS011;2752;49.992;8.422;2023-06-10T11:07:12;5.70;;;3.67;;
5458;SDS011;2752;49.992;8.422;2023-06-10T11:09:40;7.93;;;4.37;;
5458;SDS011;2752;49.992;8.422;2023-06-10T11:12:24;5.10;;;4.60;;
5458;SDS011;2752;49.992;8.422;2023-06-10T11:14:53;5.23;;;3.93;;
5458;SDS011;2752;49.992;8.422;2023-06-10T11:17:22;4.80;;;4.10;;
5458;SDS011;2752;49.992;8.422;2023-06-10T11:19:49;5.43;;;4.57;;
5458;SDS011;2752;49.992;8.422;2023-06-10T11:22:16;5.20;;;4.50;;
5458;SDS011;2752;49.992;8.422;2023-06-10T11:24:46;9.97;;;4.90;;
5458;SDS011;2752;49.992;8.422;2023-06-10T11:27:14;7.97;;;5.17;;
5458;SDS011;2752;49.992;8.422;2023-06-10T11:29:54;7.30;;;4.70;;
5458;SDS011;2752;49.992;8.422;2023-06-10T11:32:28;6.40;;;4.30;;
5458;SDS011;2752;49.992;8.422;2023-06-10T11:34:56;11.30;;;4.23;;
5458;SDS011;2752;49.992;8.422;2023-06-10T11:37:23;15.37;;;4.50;;
5458;SDS011;2752;49.992;8.422;2023-06-10T11:39:51;7.00;;;4.33;;
5458;SDS011;2752;49.992;8.422;2023-06-10T11:42:18;6.50;;;4.03;;
5458;SDS011;2752;49.992;8.422;2023-06-10T11:44:48;7.83;;;4.17;;
5458;SDS011;2752;49.992;8.422;2023-06-10T11:47:15;5.27;;;3.90;;
5458;SDS011;2752;49.992;8.422;2023-06-10T11:49:44;4.80;;;3.40;;
5458;SDS011;2752;49.992;8.422;2023-06-10T11:52:12;8.20;;;3.27;;
5458;SDS011;2752;49.992;8.422;2023-06-10T11:54:39;4.40;;;3.53;;
5458;SDS011;2752;49.992;8.422;2023-06-10T11:57:06;4.83;;;3.40;;
5458;SDS011;2752;49.992;8.422;2023-06-10T11:59:33;5.40;;;3.80;;
5458;SDS011;2752;49.992;8.422;2023-06-10T12:02:00;6.70;;;3.87;;
5458;SDS011;2752;49.992;8.422;2023-06-10T12:04:27;4.47;;;3.03;;
5458;SDS011;2752;49.992;8.422;2023-06-10T12:06:55;5.33;;;3.03;;
5458;SDS011;2752;49.992;8.422;2023-06-10T12:09:22;5.40;;;4.00;;
5458;SDS011;2752;49.992;8.422;2023-06-10T12:11:50;5.90;;;3.97;;
5458;SDS011;2752;49.992;8.422;2023-06-10T12:17:16;5.07;;;3.50;;
5458;SDS011;2752;49.992;8.422;2023-06-10T12:19:43;5.30;;;3.83;;
5458;SDS011;2752;49.992;8.422;2023-06-10T12:22:11;3.77;;;3.13;;
5458;SDS011;2752;49.992;8.422;2023-06-10T12:24:43;7.37;;;3.60;;
5458;SDS011;2752;49.992;8.422;2023-06-10T12:27:10;4.60;;;3.33;;
5458;SDS011;2752;49.992;8.422;2023-06-10T12:29:38;5.33;;;3.83;;
5458;SDS011;2752;49.992;8.422;2023-06-10T12:32:05;5.57;;;3.70;;
5458;SDS011;2752;49.992;8.422;2023-06-10T12:34:33;4.80;;;3.30;;
5458;SDS011;2752;49.992;8.422;2023-06-10T12:37:03;4.77;;;3.47;;
5458;SDS011;2752;49.992;8.422;2023-06-10T12:39:33;11.30;;;3.60;;
5458;SDS011;2752;49.992;8.422;2023-06-10T12:42:00;4.20;;;3.30;;
5458;SDS011;2752;49.992;8.422;2023-06-10T12:44:33;3.80;;;3.10;;
5458;SDS011;2752;49.992;8.422;2023-06-10T12:47:01;4.83;;;3.30;;
5458;SDS011;2752;49.992;8.422;2023-06-10T12:49:34;5.93;;;3.90;;
5458;SDS011;2752;49.992;8.422;2023-06-10T12:52:01;4.23;;;2.87;;
5458;SDS011;2752;49.992;8.422;2023-06-10T12:54:28;5.93;;;2.80;;
5458;SDS011;2752;49.992;8.422;2023-06-10T12:56:56;3.73;;;2.87;;
5458;SDS011;2752;49.992;8.422;2023-06-10T12:59:23;6.60;;;3.30;;
5458;SDS011;2752;49.992;8.422;2023-06-10T13:01:50;5.83;;;3.40;;
5458;SDS011;2752;49.992;8.422;2023-06-10T13:04:17;5.57;;;3.13;;
5458;SDS011;2752;49.992;8.422;2023-06-10T13:06:44;6.73;;;3.70;;
5458;SDS011;2752;49.992;8.422;2023-06-10T13:09:11;4.73;;;3.53;;
5458;SDS011;2752;49.992;8.422;2023-06-10T13:11:38;5.60;;;3.10;;
5458;SDS011;2752;49.992;8.422;2023-06-10T13:14:08;5.30;;;2.80;;
5458;SDS011;2752;49.992;8.422;2023-06-10T13:16:36;3.83;;;3.43;;
5458;SDS011;2752;49.992;8.422;2023-06-10T13:19:04;6.13;;;4.00;;
5458;SDS011;2752;49.992;8.422;2023-06-10T13:21:31;4.07;;;3.00;;
5458;SDS011;2752;49.992;8.422;2023-06-10T13:23:58;6.33;;;3.50;;
5458;SDS011;2752;49.992;8.422;2023-06-10T13:26:25;5.20;;;3.70;;
5458;SDS011;2752;49.992;8.422;2023-06-10T13:28:51;3.83;;;3.10;;
5458;SDS011;2752;49.992;8.422;2023-06-10T13:31:19;6.30;;;3.70;;
5458;SDS011;2752;49.992;8.422;2023-06-10T13:33:46;4.20;;;3.50;;
5458;SDS011;2752;49.992;8.422;2023-06-10T13:36:13;4.83;;;3.60;;
5458;SDS011;2752;49.992;8.422;2023-06-10T13:38:40;6.13;;;3.97;;
5458;SDS011;2752;49.992;8.422;2023-06-10T13:41:06;4.70;;;3.50;;
5458;SDS011;2752;49.992;8.422;2023-06-10T13:43:33;6.00;;;3.73;;
5458;SDS011;2752;49.992;8.422;2023-06-10T13:46:00;4.50;;;3.33;;
5458;SDS011;2752;49.992;8.422;2023-06-10T13:48:28;5.50;;;3.23;;
5458;SDS011;2752;49.992;8.422;2023-06-10T13:50:54;6.97;;;3.77;;
5458;SDS011;2752;49.992;8.422;2023-06-10T13:53:21;6.23;;;3.40;;
5458;SDS011;2752;49.992;8.422;2023-06-10T13:55:48;6.43;;;4.40;;
5458;SDS011;2752;49.992;8.422;2023-06-10T13:58:14;4.67;;;3.60;;
5458;SDS011;2752;49.992;8.422;2023-06-10T14:00:41;5.63;;;3.53;;
5458;SDS011;2752;49.992;8.422;2023-06-10T14:03:08;4.70;;;3.50;;
5458;SDS011;2752;49.992;8.422;2023-06-10T14:05:36;5.30;;;3.37;;
5458;SDS011;2752;49.992;8.422;2023-06-10T14:08:03;4.20;;;3.40;;
5458;SDS011;2752;49.992;8.422;2023-06-10T14:10:29;4.40;;;3.40;;
5458;SDS011;2752;49.992;8.422;2023-06-10T14:12:56;5.40;;;3.50;;
5458;SDS011;2752;49.992;8.422;2023-06-10T14:15:23;4.67;;;3.60;;
5458;SDS011;2752;49.992;8.422;2023-06-10T14:17:50;4.67;;;3.60;;
5458;SDS011;2752;49.992;8.422;2023-06-10T14:20:16;7.33;;;3.80;;
5458;SDS011;2752;49.992;8.422;2023-06-10T14:22:44;5.40;;;3.37;;
5458;SDS011;2752;49.992;8.422;2023-06-10T14:25:11;4.63;;;2.90;;
5458;SDS011;2752;49.992;8.422;2023-06-10T14:27:38;3.50;;;2.93;;
5458;SDS011;2752;49.992;8.422;2023-06-10T14:30:05;5.50;;;3.30;;
5458;SDS011;2752;49.992;8.422;2023-06-10T14:32:32;7.63;;;3.73;;
5458;SDS011;2752;49.992;8.422;2023-06-10T14:34:59;6.17;;;3.80;;
5458;SDS011;2752;49.992;8.422;2023-06-10T14:37:26;5.60;;;3.70;;
5458;SDS011;2752;49.992;8.422;2023-06-10T14:39:54;4.10;;;3.57;;
5458;SDS011;2752;49.992;8.422;2023-06-10T14:42:20;4.97;;;3.10;;
5458;SDS011;2752;49.992;8.422;2023-06-10T14:44:47;4.30;;;3.57;;
5458;SDS011;2752;49.992;8.422;2023-06-10T14:47:14;4.53;;;3.90;;
5458;SDS011;2752;49.992;8.422;2023-06-10T14:49:41;5.23;;;3.30;;
5458;SDS011;2752;49.992;8.422;2023-06-10T14:52:09;5.43;;;3.43;;
5458;SDS011;2752;49.992;8.422;2023-06-10T14:54:36;5.10;;;3.10;;
5458;SDS011;2752;49.992;8.422;2023-06-10T14:57:04;3.80;;;2.60;;
5458;SDS011;2752;49.992;8.422;2023-06-10T14:59:32;3.30;;;2.80;;
5458;SDS011;2752;49.992;8.422;2023-06-10T15:01:58;3.43;;;3.07;;
5458;SDS011;2752;49.992;8.422;2023-06-10T15:04:26;4.33;;;3.60;;
5458;SDS011;2752;49.992;8.422;2023-06-10T15:06:53;7.50;;;3.07;;
5458;SDS011;2752;49.992;8.422;2023-06-10T15:09:19;4.40;;;2.80;;
5458;SDS011;2752;49.992;8.422;2023-06-10T15:11:46;4.90;;;3.60;;
5458;SDS011;2752;49.992;8.422;2023-06-10T15:14:14;6.63;;;3.57;;
5458;SDS011;2752;49.992;8.422;2023-06-10T15:16:41;3.17;;;2.83;;
5458;SDS011;2752;49.992;8.422;2023-06-10T15:19:08;3.70;;;2.90;;